sensor_id;sensor_type;location;lat;lon;timestamp;temperature;humidity
39067;DHT22;24821;51.988;6.020;2022-07-29T00:01:42;18.10;82.60
39067;DHT22;24821;51.988;6.020;2022-07-29T00:04:08;18.10;82.80
39067;DHT22;24821;51.988;6.020;2022-07-29T00:06:33;18.00;82.90
39067;DHT22;24821;51.988;6.020;2022-07-29T00:08:59;18.00;83.10
39067;DHT22;24821;51.988;6.020;2022-07-29T00:11:24;18.00;83.20
39067;DHT22;24821;51.988;6.020;2022-07-29T00:13:50;18.00;83.40
39067;DHT22;24821;51.988;6.020;2022-07-29T00:16:15;17.90;83.40
39067;DHT22;24821;51.988;6.020;2022-07-29T00:18:41;18.00;83.70
39067;DHT22;24821;51.988;6.020;2022-07-29T00:21:06;17.90;83.80
39067;DHT22;24821;51.988;6.020;2022-07-29T00:23:32;17.90;83.70
39067;DHT22;24821;51.988;6.020;2022-07-29T00:25:57;17.90;83.90
39067;DHT22;24821;51.988;6.020;2022-07-29T00:28:23;17.90;84.10
39067;DHT22;24821;51.988;6.020;2022-07-29T00:30:48;17.80;84.20
39067;DHT22;24821;51.988;6.020;2022-07-29T00:33:14;17.80;84.40
39067;DHT22;24821;51.988;6.020;2022-07-29T00:35:39;17.80;84.60
39067;DHT22;24821;51.988;6.020;2022-07-29T00:38:16;17.80;84.60
39067;DHT22;24821;51.988;6.020;2022-07-29T00:40:42;17.80;84.70
39067;DHT22;24821;51.988;6.020;2022-07-29T00:43:08;17.80;85.00
39067;DHT22;24821;51.988;6.020;2022-07-29T00:45:34;17.70;85.20
39067;DHT22;24821;51.988;6.020;2022-07-29T00:47:59;17.70;85.30
39067;DHT22;24821;51.988;6.020;2022-07-29T00:50:26;17.70;85.20
39067;DHT22;24821;51.988;6.020;2022-07-29T00:52:52;17.70;85.50
39067;DHT22;24821;51.988;6.020;2022-07-29T00:55:18;17.70;85.60
39067;DHT22;24821;51.988;6.020;2022-07-29T00:57:45;17.60;85.60
39067;DHT22;24821;51.988;6.020;2022-07-29T01:00:19;17.60;85.80
39067;DHT22;24821;51.988;6.020;2022-07-29T01:02:45;17.60;86.00
39067;DHT22;24821;51.988;6.020;2022-07-29T01:05:14;17.60;86.40
39067;DHT22;24821;51.988;6.020;2022-07-29T01:07:41;17.60;86.30
39067;DHT22;24821;51.988;6.020;2022-07-29T01:10:09;17.50;86.40
39067;DHT22;24821;51.988;6.020;2022-07-29T01:12:37;17.50;86.50
39067;DHT22;24821;51.988;6.020;2022-07-29T01:15:05;17.50;86.70
39067;DHT22;24821;51.988;6.020;2022-07-29T01:31:17;17.50;86.90
39067;DHT22;24821;51.988;6.020;2022-07-29T01:33:47;17.40;87.00
39067;DHT22;24821;51.988;6.020;2022-07-29T01:36:23;17.40;87.30
39067;DHT22;24821;51.988;6.020;2022-07-29T01:39:14;17.40;87.20
39067;DHT22;24821;51.988;6.020;2022-07-29T01:41:49;17.40;87.30
39067;DHT22;24821;51.988;6.020;2022-07-29T01:44:23;17.40;87.60
39067;DHT22;24821;51.988;6.020;2022-07-29T01:46:55;17.40;87.50
39067;DHT22;24821;51.988;6.020;2022-07-29T01:49:26;17.30;87.60
39067;DHT22;24821;51.988;6.020;2022-07-29T01:51:59;17.40;87.70
39067;DHT22;24821;51.988;6.020;2022-07-29T01:54:41;17.40;87.60
39067;DHT22;24821;51.988;6.020;2022-07-29T01:57:09;17.40;87.40
39067;DHT22;24821;51.988;6.020;2022-07-29T01:59:37;17.40;87.50
39067;DHT22;24821;51.988;6.020;2022-07-29T02:02:05;17.40;87.40
39067;DHT22;24821;51.988;6.020;2022-07-29T02:04:34;17.40;87.30
39067;DHT22;24821;51.988;6.020;2022-07-29T02:07:03;17.40;87.30
39067;DHT22;24821;51.988;6.020;2022-07-29T02:09:31;17.40;87.30
39067;DHT22;24821;51.988;6.020;2022-07-29T02:11:59;17.40;87.40
39067;DHT22;24821;51.988;6.020;2022-07-29T02:14:28;17.40;87.30
39067;DHT22;24821;51.988;6.020;2022-07-29T02:16:55;17.50;87.30
39067;DHT22;24821;51.988;6.020;2022-07-29T02:19:25;17.50;87.30
39067;DHT22;24821;51.988;6.020;2022-07-29T02:21:53;17.50;87.30
39067;DHT22;24821;51.988;6.020;2022-07-29T02:24:20;17.50;87.30
39067;DHT22;24821;51.988;6.020;2022-07-29T02:26:47;17.50;87.40
39067;DHT22;24821;51.988;6.020;2022-07-29T02:29:15;17.50;87.40
39067;DHT22;24821;51.988;6.020;2022-07-29T02:31:43;17.50;87.20
39067;DHT22;24821;51.988;6.020;2022-07-29T02:34:10;17.60;87.20
39067;DHT22;24821;51.988;6.020;2022-07-29T02:36:36;17.60;87.30
39067;DHT22;24821;51.988;6.020;2022-07-29T02:39:04;17.60;87.50
39067;DHT22;24821;51.988;6.020;2022-07-29T02:41:46;17.60;87.40
39067;DHT22;24821;51.988;6.020;2022-07-29T02:44:18;17.60;87.40
39067;DHT22;24821;51.988;6.020;2022-07-29T02:47:07;17.60;87.30
39067;DHT22;24821;51.988;6.020;2022-07-29T02:49:47;17.60;87.30
39067;DHT22;24821;51.988;6.020;2022-07-29T02:52:26;17.50;87.60
39067;DHT22;24821;51.988;6.020;2022-07-29T02:55:09;17.50;88.00
39067;DHT22;24821;51.988;6.020;2022-07-29T02:57:49;17.50;88.70
39067;DHT22;24821;51.988;6.020;2022-07-29T03:00:17;17.50;89.10
39067;DHT22;24821;51.988;6.020;2022-07-29T03:02:45;17.40;89.60
39067;DHT22;24821;51.988;6.020;2022-07-29T03:05:18;17.40;89.90
39067;DHT22;24821;51.988;6.020;2022-07-29T03:07:51;17.30;90.20
39067;DHT22;24821;51.988;6.020;2022-07-29T03:10:18;17.30;90.50
39067;DHT22;24821;51.988;6.020;2022-07-29T03:12:43;17.20;91.10
39067;DHT22;24821;51.988;6.020;2022-07-29T03:15:10;17.10;91.00
39067;DHT22;24821;51.988;6.020;2022-07-29T03:17:36;17.10;91.40
39067;DHT22;24821;51.988;6.020;2022-07-29T03:20:04;17.00;92.00
39067;DHT22;24821;51.988;6.020;2022-07-29T03:22:30;16.90;92.10
39067;DHT22;24821;51.988;6.020;2022-07-29T03:24:56;16.80;92.50
39067;DHT22;24821;51.988;6.020;2022-07-29T03:27:21;16.70;92.70
39067;DHT22;24821;51.988;6.020;2022-07-29T03:29:47;16.70;93.00
39067;DHT22;24821;51.988;6.020;2022-07-29T03:32:12;16.70;93.10
39067;DHT22;24821;51.988;6.020;2022-07-29T03:34:38;16.60;93.20
39067;DHT22;24821;51.988;6.020;2022-07-29T03:37:05;16.60;93.30
39067;DHT22;24821;51.988;6.020;2022-07-29T03:39:35;16.50;93.50
39067;DHT22;24821;51.988;6.020;2022-07-29T03:42:02;16.40;93.80
39067;DHT22;24821;51.988;6.020;2022-07-29T03:44:29;16.40;94.10
39067;DHT22;24821;51.988;6.020;2022-07-29T03:46:57;16.30;94.20
39067;DHT22;24821;51.988;6.020;2022-07-29T03:49:26;16.20;94.50
39067;DHT22;24821;51.988;6.020;2022-07-29T03:51:51;16.10;94.90
39067;DHT22;24821;51.988;6.020;2022-07-29T03:54:17;16.00;95.30
39067;DHT22;24821;51.988;6.020;2022-07-29T03:56:45;15.90;95.60
39067;DHT22;24821;51.988;6.020;2022-07-29T03:59:13;15.90;95.70
39067;DHT22;24821;51.988;6.020;2022-07-29T04:01:41;15.90;95.90
39067;DHT22;24821;51.988;6.020;2022-07-29T04:04:07;15.90;96.00
39067;DHT22;24821;51.988;6.020;2022-07-29T04:06:44;15.90;96.20
39067;DHT22;24821;51.988;6.020;2022-07-29T04:09:10;15.90;96.50
39067;DHT22;24821;51.988;6.020;2022-07-29T04:11:37;15.80;96.60
39067;DHT22;24821;51.988;6.020;2022-07-29T04:14:03;15.80;96.80
39067;DHT22;24821;51.988;6.020;2022-07-29T04:16:29;15.80;97.00
39067;DHT22;24821;51.988;6.020;2022-07-29T04:18:54;15.80;97.00
39067;DHT22;24821;51.988;6.020;2022-07-29T04:21:20;15.70;97.10
39067;DHT22;24821;51.988;6.020;2022-07-29T04:23:46;15.80;97.30
39067;DHT22;24821;51.988;6.020;2022-07-29T04:26:15;15.70;97.20
39067;DHT22;24821;51.988;6.020;2022-07-29T04:28:41;15.70;97.30
39067;DHT22;24821;51.988;6.020;2022-07-29T04:31:08;15.70;97.30
39067;DHT22;24821;51.988;6.020;2022-07-29T04:33:34;15.70;97.40
39067;DHT22;24821;51.988;6.020;2022-07-29T04:35:59;15.70;97.60
39067;DHT22;24821;51.988;6.020;2022-07-29T04:38:24;15.70;97.60
39067;DHT22;24821;51.988;6.020;2022-07-29T04:40:50;15.70;97.70
39067;DHT22;24821;51.988;6.020;2022-07-29T04:43:16;15.70;97.80
39067;DHT22;24821;51.988;6.020;2022-07-29T04:45:41;15.80;97.70
39067;DHT22;24821;51.988;6.020;2022-07-29T04:48:07;15.90;97.70
39067;DHT22;24821;51.988;6.020;2022-07-29T04:50:32;15.90;97.60
39067;DHT22;24821;51.988;6.020;2022-07-29T04:52:58;16.00;97.50
39067;DHT22;24821;51.988;6.020;2022-07-29T04:55:23;16.00;97.30
39067;DHT22;24821;51.988;6.020;2022-07-29T04:57:50;16.10;97.10
39067;DHT22;24821;51.988;6.020;2022-07-29T05:00:15;16.10;97.00
39067;DHT22;24821;51.988;6.020;2022-07-29T05:02:41;16.10;97.00
39067;DHT22;24821;51.988;6.020;2022-07-29T05:05:07;16.10;96.90
39067;DHT22;24821;51.988;6.020;2022-07-29T05:07:33;16.20;96.90
39067;DHT22;24821;51.988;6.020;2022-07-29T05:09:58;16.20;96.90
39067;DHT22;24821;51.988;6.020;2022-07-29T05:12:24;16.20;96.80
39067;DHT22;24821;51.988;6.020;2022-07-29T05:14:50;16.20;96.70
39067;DHT22;24821;51.988;6.020;2022-07-29T05:17:16;16.10;96.70
39067;DHT22;24821;51.988;6.020;2022-07-29T05:19:41;16.10;96.80
39067;DHT22;24821;51.988;6.020;2022-07-29T05:22:07;16.10;96.80
39067;DHT22;24821;51.988;6.020;2022-07-29T05:24:32;16.10;96.80
39067;DHT22;24821;51.988;6.020;2022-07-29T05:26:58;16.10;96.80
39067;DHT22;24821;51.988;6.020;2022-07-29T05:29:23;16.10;97.00
39067;DHT22;24821;51.988;6.020;2022-07-29T05:31:49;16.10;97.20
39067;DHT22;24821;51.988;6.020;2022-07-29T05:34:16;16.10;97.70
39067;DHT22;24821;51.988;6.020;2022-07-29T05:36:42;16.10;97.50
39067;DHT22;24821;51.988;6.020;2022-07-29T05:39:07;16.10;97.50
39067;DHT22;24821;51.988;6.020;2022-07-29T05:41:33;16.20;97.50
39067;DHT22;24821;51.988;6.020;2022-07-29T05:43:58;16.20;97.50
39067;DHT22;24821;51.988;6.020;2022-07-29T05:46:24;16.20;97.50
39067;DHT22;24821;51.988;6.020;2022-07-29T05:48:49;16.30;97.50
39067;DHT22;24821;51.988;6.020;2022-07-29T05:51:15;16.30;97.40
39067;DHT22;24821;51.988;6.020;2022-07-29T05:53:41;16.30;97.30
39067;DHT22;24821;51.988;6.020;2022-07-29T05:56:06;16.40;97.30
39067;DHT22;24821;51.988;6.020;2022-07-29T05:58:32;16.50;97.10
39067;DHT22;24821;51.988;6.020;2022-07-29T06:00:58;16.50;96.80
39067;DHT22;24821;51.988;6.020;2022-07-29T06:03:25;16.50;96.80
39067;DHT22;24821;51.988;6.020;2022-07-29T06:05:51;16.60;96.80
39067;DHT22;24821;51.988;6.020;2022-07-29T06:08:16;16.60;96.80
39067;DHT22;24821;51.988;6.020;2022-07-29T06:10:42;16.70;96.80
39067;DHT22;24821;51.988;6.020;2022-07-29T06:13:08;16.70;96.60
39067;DHT22;24821;51.988;6.020;2022-07-29T06:15:34;16.80;96.60
39067;DHT22;24821;51.988;6.020;2022-07-29T06:18:00;16.90;96.50
39067;DHT22;24821;51.988;6.020;2022-07-29T06:20:25;17.00;96.50
39067;DHT22;24821;51.988;6.020;2022-07-29T06:22:52;17.10;96.50
39067;DHT22;24821;51.988;6.020;2022-07-29T06:25:17;17.10;96.20
39067;DHT22;24821;51.988;6.020;2022-07-29T06:27:43;17.20;96.10
39067;DHT22;24821;51.988;6.020;2022-07-29T06:30:09;17.30;96.00
39067;DHT22;24821;51.988;6.020;2022-07-29T06:32:35;17.30;96.00
39067;DHT22;24821;51.988;6.020;2022-07-29T06:35:01;17.30;95.80
39067;DHT22;24821;51.988;6.020;2022-07-29T06:37:26;17.30;95.70
39067;DHT22;24821;51.988;6.020;2022-07-29T06:39:52;17.30;95.70
39067;DHT22;24821;51.988;6.020;2022-07-29T06:42:37;17.30;95.60
39067;DHT22;24821;51.988;6.020;2022-07-29T06:45:05;17.20;95.50
39067;DHT22;24821;51.988;6.020;2022-07-29T06:47:31;17.30;95.60
39067;DHT22;24821;51.988;6.020;2022-07-29T06:49:56;17.30;95.50
39067;DHT22;24821;51.988;6.020;2022-07-29T06:52:22;17.40;95.40
39067;DHT22;24821;51.988;6.020;2022-07-29T06:54:47;17.40;95.10
39067;DHT22;24821;51.988;6.020;2022-07-29T06:57:13;17.50;94.90
39067;DHT22;24821;51.988;6.020;2022-07-29T06:59:39;17.60;94.80
39067;DHT22;24821;51.988;6.020;2022-07-29T07:02:05;17.70;94.70
39067;DHT22;24821;51.988;6.020;2022-07-29T07:04:31;17.70;94.30
39067;DHT22;24821;51.988;6.020;2022-07-29T07:06:57;17.80;94.10
39067;DHT22;24821;51.988;6.020;2022-07-29T07:09:23;17.90;93.90
39067;DHT22;24821;51.988;6.020;2022-07-29T07:11:48;18.00;94.10
39067;DHT22;24821;51.988;6.020;2022-07-29T07:14:14;18.20;94.40
39067;DHT22;24821;51.988;6.020;2022-07-29T07:16:39;18.20;94.20
39067;DHT22;24821;51.988;6.020;2022-07-29T07:19:05;18.30;93.80
39067;DHT22;24821;51.988;6.020;2022-07-29T07:21:30;18.30;93.70
39067;DHT22;24821;51.988;6.020;2022-07-29T07:23:58;18.30;94.00
39067;DHT22;24821;51.988;6.020;2022-07-29T07:26:24;18.20;93.70
39067;DHT22;24821;51.988;6.020;2022-07-29T07:28:50;18.20;93.70
39067;DHT22;24821;51.988;6.020;2022-07-29T07:31:15;18.20;93.70
39067;DHT22;24821;51.988;6.020;2022-07-29T07:33:41;18.30;93.70
39067;DHT22;24821;51.988;6.020;2022-07-29T07:36:07;18.30;93.70
39067;DHT22;24821;51.988;6.020;2022-07-29T07:38:32;18.30;93.70
39067;DHT22;24821;51.988;6.020;2022-07-29T07:40:58;18.40;93.70
39067;DHT22;24821;51.988;6.020;2022-07-29T07:43:23;18.30;93.60
39067;DHT22;24821;51.988;6.020;2022-07-29T07:45:49;18.40;93.60
39067;DHT22;24821;51.988;6.020;2022-07-29T07:48:15;18.30;93.40
39067;DHT22;24821;51.988;6.020;2022-07-29T07:50:40;18.40;93.40
39067;DHT22;24821;51.988;6.020;2022-07-29T07:53:06;18.40;93.50
39067;DHT22;24821;51.988;6.020;2022-07-29T07:55:31;18.30;93.60
39067;DHT22;24821;51.988;6.020;2022-07-29T07:57:57;18.30;93.70
39067;DHT22;24821;51.988;6.020;2022-07-29T08:00:23;18.30;93.70
39067;DHT22;24821;51.988;6.020;2022-07-29T08:02:48;18.30;93.70
39067;DHT22;24821;51.988;6.020;2022-07-29T08:05:15;18.30;93.90
39067;DHT22;24821;51.988;6.020;2022-07-29T08:07:44;18.30;93.80
39067;DHT22;24821;51.988;6.020;2022-07-29T08:10:10;18.40;93.90
39067;DHT22;24821;51.988;6.020;2022-07-29T08:12:35;18.30;93.90
39067;DHT22;24821;51.988;6.020;2022-07-29T08:15:01;18.40;94.10
39067;DHT22;24821;51.988;6.020;2022-07-29T08:17:26;18.50;94.20
39067;DHT22;24821;51.988;6.020;2022-07-29T08:19:52;18.60;94.20
39067;DHT22;24821;51.988;6.020;2022-07-29T08:22:18;18.60;94.20
39067;DHT22;24821;51.988;6.020;2022-07-29T08:24:43;18.70;94.20
39067;DHT22;24821;51.988;6.020;2022-07-29T08:27:10;18.80;94.10
39067;DHT22;24821;51.988;6.020;2022-07-29T08:29:36;18.90;94.00
39067;DHT22;24821;51.988;6.020;2022-07-29T08:32:02;19.00;93.60
39067;DHT22;24821;51.988;6.020;2022-07-29T08:34:28;19.10;93.70
39067;DHT22;24821;51.988;6.020;2022-07-29T08:36:54;19.10;93.60
39067;DHT22;24821;51.988;6.020;2022-07-29T08:39:21;19.20;93.40
39067;DHT22;24821;51.988;6.020;2022-07-29T08:41:47;19.20;93.00
39067;DHT22;24821;51.988;6.020;2022-07-29T08:44:15;19.30;93.10
39067;DHT22;24821;51.988;6.020;2022-07-29T08:46:41;19.30;92.90
39067;DHT22;24821;51.988;6.020;2022-07-29T08:49:07;19.40;93.10
39067;DHT22;24821;51.988;6.020;2022-07-29T08:51:33;19.40;92.90
39067;DHT22;24821;51.988;6.020;2022-07-29T08:54:01;19.40;93.00
39067;DHT22;24821;51.988;6.020;2022-07-29T08:56:27;19.50;92.80
39067;DHT22;24821;51.988;6.020;2022-07-29T08:58:54;19.50;92.60
39067;DHT22;24821;51.988;6.020;2022-07-29T09:01:24;19.50;92.30
39067;DHT22;24821;51.988;6.020;2022-07-29T09:03:55;19.50;92.30
39067;DHT22;24821;51.988;6.020;2022-07-29T09:06:22;19.50;92.50
39067;DHT22;24821;51.988;6.020;2022-07-29T09:08:51;19.50;92.60
39067;DHT22;24821;51.988;6.020;2022-07-29T09:11:16;19.50;92.60
39067;DHT22;24821;51.988;6.020;2022-07-29T09:13:42;19.50;92.60
39067;DHT22;24821;51.988;6.020;2022-07-29T09:16:08;19.50;92.60
39067;DHT22;24821;51.988;6.020;2022-07-29T09:18:37;19.40;92.40
39067;DHT22;24821;51.988;6.020;2022-07-29T09:21:04;19.40;92.50
39067;DHT22;24821;51.988;6.020;2022-07-29T09:24:04;19.30;92.60
39067;DHT22;24821;51.988;6.020;2022-07-29T09:26:31;19.30;92.60
39067;DHT22;24821;51.988;6.020;2022-07-29T09:28:57;19.30;92.80
39067;DHT22;24821;51.988;6.020;2022-07-29T09:31:33;19.20;92.80
39067;DHT22;24821;51.988;6.020;2022-07-29T09:33:59;19.30;93.00
39067;DHT22;24821;51.988;6.020;2022-07-29T09:36:26;19.30;93.30
39067;DHT22;24821;51.988;6.020;2022-07-29T09:39:01;19.30;93.20
39067;DHT22;24821;51.988;6.020;2022-07-29T09:41:27;19.40;92.90
39067;DHT22;24821;51.988;6.020;2022-07-29T09:43:57;19.50;93.00
39067;DHT22;24821;51.988;6.020;2022-07-29T09:46:24;19.60;92.70
39067;DHT22;24821;51.988;6.020;2022-07-29T09:49:12;19.60;92.60
39067;DHT22;24821;51.988;6.020;2022-07-29T09:51:39;19.70;92.70
39067;DHT22;24821;51.988;6.020;2022-07-29T09:54:24;19.70;92.80
39067;DHT22;24821;51.988;6.020;2022-07-29T09:56:52;19.80;92.90
39067;DHT22;24821;51.988;6.020;2022-07-29T09:59:19;19.70;93.00
39067;DHT22;24821;51.988;6.020;2022-07-29T10:01:52;19.80;92.90
39067;DHT22;24821;51.988;6.020;2022-07-29T10:04:18;19.80;92.90
39067;DHT22;24821;51.988;6.020;2022-07-29T10:07:04;19.80;92.90
39067;DHT22;24821;51.988;6.020;2022-07-29T10:09:31;20.00;93.00
39067;DHT22;24821;51.988;6.020;2022-07-29T10:12:10;20.00;92.80
39067;DHT22;24821;51.988;6.020;2022-07-29T10:14:39;20.20;92.70
39067;DHT22;24821;51.988;6.020;2022-07-29T10:17:05;20.40;92.80
39067;DHT22;24821;51.988;6.020;2022-07-29T10:19:33;20.60;92.30
39067;DHT22;24821;51.988;6.020;2022-07-29T10:22:00;20.90;91.90
39067;DHT22;24821;51.988;6.020;2022-07-29T10:24:27;21.10;91.40
39067;DHT22;24821;51.988;6.020;2022-07-29T10:26:55;21.40;91.10
39067;DHT22;24821;51.988;6.020;2022-07-29T10:29:21;21.60;91.10
39067;DHT22;24821;51.988;6.020;2022-07-29T10:37:57;22.50;88.60
39067;DHT22;24821;51.988;6.020;2022-07-29T10:40:35;22.80;90.20
39067;DHT22;24821;51.988;6.020;2022-07-29T10:43:31;23.00;88.70
39067;DHT22;24821;51.988;6.020;2022-07-29T10:46:02;23.10;87.70
39067;DHT22;24821;51.988;6.020;2022-07-29T10:48:28;23.20;87.00
39067;DHT22;24821;51.988;6.020;2022-07-29T10:51:00;23.20;87.30
39067;DHT22;24821;51.988;6.020;2022-07-29T10:53:51;23.30;87.30
39067;DHT22;24821;51.988;6.020;2022-07-29T10:56:31;23.40;88.10
39067;DHT22;24821;51.988;6.020;2022-07-29T11:01:49;23.60;86.60
39067;DHT22;24821;51.988;6.020;2022-07-29T11:05:02;23.60;85.10
39067;DHT22;24821;51.988;6.020;2022-07-29T11:09:28;23.60;86.00
39067;DHT22;24821;51.988;6.020;2022-07-29T11:11:56;23.50;85.40
39067;DHT22;24821;51.988;6.020;2022-07-29T11:17:18;23.40;85.80
39067;DHT22;24821;51.988;6.020;2022-07-29T11:19:44;23.20;85.70
39067;DHT22;24821;51.988;6.020;2022-07-29T11:22:10;23.20;86.00
39067;DHT22;24821;51.988;6.020;2022-07-29T11:24:37;23.20;85.60
39067;DHT22;24821;51.988;6.020;2022-07-29T11:29:32;23.40;85.30
39067;DHT22;24821;51.988;6.020;2022-07-29T11:32:13;23.60;84.80
39067;DHT22;24821;51.988;6.020;2022-07-29T11:34:43;23.60;83.90
39067;DHT22;24821;51.988;6.020;2022-07-29T11:39:46;23.60;84.30
39067;DHT22;24821;51.988;6.020;2022-07-29T11:45:01;23.80;83.60
39067;DHT22;24821;51.988;6.020;2022-07-29T11:47:31;24.10;83.50
39067;DHT22;24821;51.988;6.020;2022-07-29T11:49:57;24.30;83.00
39067;DHT22;24821;51.988;6.020;2022-07-29T11:52:41;24.40;82.80
39067;DHT22;24821;51.988;6.020;2022-07-29T11:55:13;24.50;81.70
39067;DHT22;24821;51.988;6.020;2022-07-29T11:57:50;24.50;81.50
39067;DHT22;24821;51.988;6.020;2022-07-29T12:00:40;24.60;82.50
39067;DHT22;24821;51.988;6.020;2022-07-29T12:03:07;24.70;79.40
39067;DHT22;24821;51.988;6.020;2022-07-29T12:05:44;24.80;79.80
39067;DHT22;24821;51.988;6.020;2022-07-29T12:08:13;24.90;80.70
39067;DHT22;24821;51.988;6.020;2022-07-29T12:10:40;25.00;80.10
39067;DHT22;24821;51.988;6.020;2022-07-29T12:13:06;25.10;79.90
39067;DHT22;24821;51.988;6.020;2022-07-29T12:15:31;25.10;78.80
39067;DHT22;24821;51.988;6.020;2022-07-29T12:17:57;25.30;78.00
39067;DHT22;24821;51.988;6.020;2022-07-29T12:20:28;25.40;77.70
39067;DHT22;24821;51.988;6.020;2022-07-29T12:22:55;25.60;78.20
39067;DHT22;24821;51.988;6.020;2022-07-29T12:25:22;25.80;77.40
39067;DHT22;24821;51.988;6.020;2022-07-29T12:28:02;26.00;75.70
39067;DHT22;24821;51.988;6.020;2022-07-29T12:33:24;26.10;73.80
39067;DHT22;24821;51.988;6.020;2022-07-29T12:35:52;26.00;71.70
39067;DHT22;24821;51.988;6.020;2022-07-29T12:38:19;26.00;72.90
39067;DHT22;24821;51.988;6.020;2022-07-29T12:40:46;26.00;69.70
39067;DHT22;24821;51.988;6.020;2022-07-29T12:43:20;25.90;70.80
39067;DHT22;24821;51.988;6.020;2022-07-29T12:45:51;25.80;71.70
39067;DHT22;24821;51.988;6.020;2022-07-29T12:48:18;25.90;71.00
39067;DHT22;24821;51.988;6.020;2022-07-29T12:51:01;26.00;72.90
39067;DHT22;24821;51.988;6.020;2022-07-29T12:53:28;26.10;73.00
39067;DHT22;24821;51.988;6.020;2022-07-29T12:55:55;26.20;72.90
39067;DHT22;24821;51.988;6.020;2022-07-29T12:58:37;26.30;73.00
39067;DHT22;24821;51.988;6.020;2022-07-29T13:01:11;26.40;71.40
39067;DHT22;24821;51.988;6.020;2022-07-29T13:09:17;26.60;72.30
39067;DHT22;24821;51.988;6.020;2022-07-29T13:11:46;26.60;71.00
39067;DHT22;24821;51.988;6.020;2022-07-29T13:14:32;26.60;71.40
39067;DHT22;24821;51.988;6.020;2022-07-29T13:17:15;26.70;70.00
39067;DHT22;24821;51.988;6.020;2022-07-29T13:22:12;26.80;69.90
39067;DHT22;24821;51.988;6.020;2022-07-29T13:24:47;26.80;69.80
39067;DHT22;24821;51.988;6.020;2022-07-29T13:27:17;26.90;69.60
39067;DHT22;24821;51.988;6.020;2022-07-29T13:29:43;27.00;70.50
39067;DHT22;24821;51.988;6.020;2022-07-29T13:32:09;27.00;68.60
39067;DHT22;24821;51.988;6.020;2022-07-29T13:34:34;27.00;68.00
39067;DHT22;24821;51.988;6.020;2022-07-29T13:37:00;26.90;69.20
39067;DHT22;24821;51.988;6.020;2022-07-29T13:39:26;27.10;69.70
39067;DHT22;24821;51.988;6.020;2022-07-29T13:41:51;27.10;69.00
39067;DHT22;24821;51.988;6.020;2022-07-29T13:44:17;27.30;68.40
39067;DHT22;24821;51.988;6.020;2022-07-29T13:46:42;27.40;66.50
39067;DHT22;24821;51.988;6.020;2022-07-29T13:49:08;27.30;66.00
39067;DHT22;24821;51.988;6.020;2022-07-29T13:51:33;27.30;66.90
39067;DHT22;24821;51.988;6.020;2022-07-29T13:53:59;27.40;66.70
39067;DHT22;24821;51.988;6.020;2022-07-29T13:56:24;27.40;65.90
39067;DHT22;24821;51.988;6.020;2022-07-29T13:58:50;27.40;65.90
39067;DHT22;24821;51.988;6.020;2022-07-29T14:01:15;27.40;65.40
39067;DHT22;24821;51.988;6.020;2022-07-29T14:03:41;27.40;64.70
39067;DHT22;24821;51.988;6.020;2022-07-29T14:06:08;27.30;65.20
39067;DHT22;24821;51.988;6.020;2022-07-29T14:08:34;27.40;65.20
39067;DHT22;24821;51.988;6.020;2022-07-29T14:10:59;27.30;65.40
39067;DHT22;24821;51.988;6.020;2022-07-29T14:13:25;27.30;65.60
39067;DHT22;24821;51.988;6.020;2022-07-29T14:15:50;27.40;65.10
39067;DHT22;24821;51.988;6.020;2022-07-29T14:18:16;27.30;63.50
39067;DHT22;24821;51.988;6.020;2022-07-29T14:20:41;27.30;64.00
39067;DHT22;24821;51.988;6.020;2022-07-29T14:23:07;27.40;63.10
39067;DHT22;24821;51.988;6.020;2022-07-29T14:25:32;27.40;64.00
39067;DHT22;24821;51.988;6.020;2022-07-29T14:27:58;27.50;64.30
39067;DHT22;24821;51.988;6.020;2022-07-29T14:30:24;27.50;63.20
39067;DHT22;24821;51.988;6.020;2022-07-29T14:32:49;27.50;62.50
39067;DHT22;24821;51.988;6.020;2022-07-29T14:35:15;27.50;63.90
39067;DHT22;24821;51.988;6.020;2022-07-29T14:37:40;27.50;63.10
39067;DHT22;24821;51.988;6.020;2022-07-29T14:40:08;27.40;63.80
39067;DHT22;24821;51.988;6.020;2022-07-29T14:42:33;27.50;63.40
39067;DHT22;24821;51.988;6.020;2022-07-29T14:44:59;27.50;61.90
39067;DHT22;24821;51.988;6.020;2022-07-29T14:47:24;27.40;63.10
39067;DHT22;24821;51.988;6.020;2022-07-29T14:49:50;27.40;62.00
39067;DHT22;24821;51.988;6.020;2022-07-29T14:52:16;27.40;61.90
39067;DHT22;24821;51.988;6.020;2022-07-29T14:54:41;27.40;62.30
39067;DHT22;24821;51.988;6.020;2022-07-29T14:57:07;27.40;63.10
39067;DHT22;24821;51.988;6.020;2022-07-29T14:59:32;27.50;63.00
39067;DHT22;24821;51.988;6.020;2022-07-29T15:01:58;27.50;62.80
39067;DHT22;24821;51.988;6.020;2022-07-29T15:04:23;27.50;61.60
39067;DHT22;24821;51.988;6.020;2022-07-29T15:06:49;27.40;62.20
39067;DHT22;24821;51.988;6.020;2022-07-29T15:09:15;27.20;63.40
39067;DHT22;24821;51.988;6.020;2022-07-29T15:11:41;27.10;63.30
39067;DHT22;24821;51.988;6.020;2022-07-29T15:14:06;26.90;63.40
39067;DHT22;24821;51.988;6.020;2022-07-29T15:16:32;26.80;63.30
39067;DHT22;24821;51.988;6.020;2022-07-29T15:18:57;26.90;62.80
39067;DHT22;24821;51.988;6.020;2022-07-29T15:21:23;26.90;62.90
39067;DHT22;24821;51.988;6.020;2022-07-29T15:23:49;26.80;64.00
39067;DHT22;24821;51.988;6.020;2022-07-29T15:26:15;26.70;63.90
39067;DHT22;24821;51.988;6.020;2022-07-29T15:28:40;26.40;63.60
39067;DHT22;24821;51.988;6.020;2022-07-29T15:31:06;26.30;63.90
39067;DHT22;24821;51.988;6.020;2022-07-29T15:33:31;26.30;65.00
39067;DHT22;24821;51.988;6.020;2022-07-29T15:35:57;26.20;64.30
39067;DHT22;24821;51.988;6.020;2022-07-29T15:38:22;26.20;64.80
39067;DHT22;24821;51.988;6.020;2022-07-29T15:40:48;26.00;65.40
39067;DHT22;24821;51.988;6.020;2022-07-29T15:43:13;25.90;65.70
39067;DHT22;24821;51.988;6.020;2022-07-29T15:45:40;25.80;66.10
39067;DHT22;24821;51.988;6.020;2022-07-29T15:48:07;25.60;66.40
39067;DHT22;24821;51.988;6.020;2022-07-29T15:50:33;25.50;66.90
39067;DHT22;24821;51.988;6.020;2022-07-29T15:52:59;25.40;67.60
39067;DHT22;24821;51.988;6.020;2022-07-29T15:55:24;25.40;66.90
39067;DHT22;24821;51.988;6.020;2022-07-29T15:57:50;25.30;67.00
39067;DHT22;24821;51.988;6.020;2022-07-29T16:00:16;25.30;68.00
39067;DHT22;24821;51.988;6.020;2022-07-29T16:02:42;25.30;67.60
39067;DHT22;24821;51.988;6.020;2022-07-29T16:05:09;25.30;68.40
39067;DHT22;24821;51.988;6.020;2022-07-29T16:07:34;25.30;68.90
39067;DHT22;24821;51.988;6.020;2022-07-29T16:10:00;25.20;68.80
39067;DHT22;24821;51.988;6.020;2022-07-29T16:12:25;25.20;68.50
39067;DHT22;24821;51.988;6.020;2022-07-29T16:14:51;25.20;68.10
39067;DHT22;24821;51.988;6.020;2022-07-29T16:17:17;25.30;69.80
39067;DHT22;24821;51.988;6.020;2022-07-29T16:19:43;25.20;70.30
39067;DHT22;24821;51.988;6.020;2022-07-29T16:22:11;25.20;70.20